createdAt,value
2023-01-29T00:08:36.305Z,23.74
2023-01-29T00:18:41.511Z,23.72
2023-01-29T00:28:46.559Z,23.64
2023-01-29T00:38:51.740Z,23.69
2023-01-29T00:48:56.998Z,23.71
2023-01-29T00:59:02.293Z,23.79
2023-01-29T01:09:07.236Z,23.69
2023-01-29T01:19:12.346Z,23.61
2023-01-29T01:29:17.399Z,23.49
2023-01-29T01:39:22.614Z,23.59
2023-01-29T01:49:27.659Z,23.56
2023-01-29T01:59:32.925Z,23.72
2023-01-29T02:09:38.397Z,23.65
2023-01-29T02:29:48.901Z,23.58
2023-01-29T02:39:54.145Z,23.50
2023-01-29T02:49:59.412Z,23.53
2023-01-29T03:00:04.814Z,23.46
2023-01-29T03:10:09.828Z,23.32
2023-01-29T03:20:15.731Z,23.20
2023-01-29T03:30:21.641Z,23.18
2023-01-29T03:41:46.342Z,23.06
2023-01-29T03:51:51.446Z,23.03
2023-01-29T04:01:56.629Z,23.00
2023-01-29T04:12:01.991Z,22.95
2023-01-29T04:22:07.030Z,22.98
2023-01-29T04:32:12.525Z,22.93
2023-01-29T04:42:17.551Z,22.90
2023-01-29T04:52:23.688Z,22.89
2023-01-29T05:02:28.993Z,22.85
2023-01-29T05:12:34.304Z,22.85
2023-01-29T05:22:39.706Z,22.83
2023-01-29T05:32:44.557Z,22.81
2023-01-29T05:42:49.656Z,22.81
2023-01-29T05:52:54.762Z,22.76
2023-01-29T06:03:00.029Z,22.78
2023-01-29T06:13:05.532Z,22.77
2023-01-29T06:23:10.659Z,22.78
2023-01-29T06:33:16.178Z,22.76
2023-01-29T06:43:21.516Z,22.72
2023-01-29T06:53:26.722Z,22.71
2023-01-29T07:03:31.928Z,22.68
2023-01-29T07:13:37.680Z,22.69
2023-01-29T07:23:43.165Z,22.67
2023-01-29T07:33:48.282Z,22.66
2023-01-29T07:43:53.288Z,22.65
2023-01-29T07:53:58.167Z,22.64
2023-01-29T08:04:03.493Z,22.63
2023-01-29T08:14:09.795Z,22.63
2023-01-29T08:24:15.128Z,22.54
2023-01-29T08:34:20.219Z,22.52
2023-01-29T08:44:25.561Z,22.53
2023-01-29T08:54:30.836Z,22.55
2023-01-29T09:04:36.364Z,22.52
2023-01-29T09:14:41.977Z,22.54
2023-01-29T09:24:47.494Z,22.47
2023-01-29T09:34:52.681Z,22.46
2023-01-29T09:44:58.347Z,22.43
2023-01-29T09:55:03.894Z,22.53
2023-01-29T10:05:09.562Z,22.53
2023-01-29T10:15:15.331Z,22.48
2023-01-29T10:25:21.018Z,22.46
2023-01-29T10:35:26.467Z,22.48
2023-01-29T10:45:32.205Z,22.46
2023-01-29T10:55:37.425Z,22.43
2023-01-29T11:05:42.884Z,22.43
2023-01-29T11:15:48.257Z,22.50
2023-01-29T11:25:54.014Z,22.49
2023-01-29T11:35:59.328Z,22.44
2023-01-29T11:46:04.619Z,22.42
2023-01-29T11:56:10.157Z,22.44
2023-01-29T12:06:15.361Z,22.42
2023-01-29T12:16:21.128Z,22.46
2023-01-29T12:26:26.658Z,22.59
2023-01-29T12:36:32.378Z,22.93
2023-01-29T12:46:37.871Z,23.02
2023-01-29T12:56:43.399Z,23.09
2023-01-29T13:06:48.959Z,23.08
2023-01-29T13:16:55.839Z,23.12
2023-01-29T13:27:01.233Z,23.16
2023-01-29T13:37:06.686Z,23.27
2023-01-29T13:47:12.352Z,23.30
2023-01-29T13:57:17.809Z,23.33
2023-01-29T14:07:23.259Z,23.22
2023-01-29T14:17:28.960Z,23.29
2023-01-29T14:27:35.161Z,23.30
2023-01-29T14:37:41.379Z,23.26
2023-01-29T14:47:47.179Z,23.28
2023-01-29T14:57:52.764Z,23.28
2023-01-29T15:07:58.828Z,23.22
2023-01-29T15:18:04.728Z,23.31
2023-01-29T15:28:10.107Z,23.36
2023-01-29T15:38:15.401Z,23.38
2023-01-29T15:48:21.248Z,23.40
2023-01-29T15:58:26.881Z,23.38
2023-01-29T16:08:32.410Z,23.53
2023-01-29T16:18:39.471Z,23.53
2023-01-29T16:28:47.158Z,23.54
2023-01-29T16:38:52.938Z,23.61
2023-01-29T16:48:58.385Z,23.60
2023-01-29T16:59:04.267Z,23.61
2023-01-29T17:09:10.166Z,23.56
2023-01-29T17:19:15.540Z,23.61
2023-01-29T17:29:21.373Z,23.56
2023-01-29T17:39:27.130Z,23.64
2023-01-29T17:49:32.731Z,23.63
2023-01-29T17:59:38.356Z,23.62
2023-01-29T18:09:44.318Z,23.53
2023-01-29T18:19:49.877Z,23.67
2023-01-29T18:29:55.712Z,23.58
2023-01-29T18:40:01.260Z,23.68
2023-01-29T18:50:06.921Z,23.61
2023-01-29T19:00:12.775Z,23.71
2023-01-29T19:10:18.877Z,23.69
2023-01-29T19:20:24.381Z,23.78
2023-01-29T19:30:30.768Z,23.67
2023-01-29T19:40:36.136Z,23.76
2023-01-29T19:50:41.772Z,23.72
2023-01-29T20:00:47.276Z,23.80
2023-01-29T20:10:53.098Z,23.76
2023-01-29T20:20:58.852Z,23.81
2023-01-29T20:31:04.642Z,23.78
2023-01-29T20:41:10.443Z,23.74
2023-01-29T20:51:16.161Z,23.76
2023-01-29T21:01:21.712Z,23.78
2023-01-29T21:11:27.067Z,23.81
2023-01-29T21:21:32.803Z,23.72
2023-01-29T21:31:38.377Z,23.67
2023-01-29T21:41:44.097Z,23.71
2023-01-29T21:51:49.567Z,23.73
2023-01-29T22:01:55.076Z,23.69
2023-01-29T22:12:00.537Z,23.72
2023-01-29T22:22:05.945Z,23.77
2023-01-29T22:32:11.483Z,23.58
2023-01-29T22:42:16.909Z,23.53
2023-01-29T22:52:22.239Z,23.45
2023-01-29T23:02:27.592Z,23.44
2023-01-29T23:12:32.972Z,23.37
2023-01-29T23:22:38.466Z,23.40
2023-01-29T23:32:43.838Z,23.32
2023-01-29T23:42:49.018Z,23.29
2023-01-29T23:52:54.484Z,23.37
